createdAt,value
2023-02-23T00:01:56.101Z,6.70
2023-02-23T00:04:25.211Z,6.25
2023-02-23T00:06:53.466Z,7.07
2023-02-23T00:09:28.027Z,6.10
2023-02-23T00:11:57.414Z,6.68
2023-02-23T00:14:31.323Z,6.38
2023-02-23T00:17:00.138Z,6.72
2023-02-23T00:19:27.622Z,6.05
2023-02-23T00:21:54.995Z,7.00
2023-02-23T00:24:23.415Z,7.90
2023-02-23T00:26:51.645Z,6.40
2023-02-23T00:29:22.518Z,6.80
2023-02-23T00:31:51.475Z,6.65
2023-02-23T00:34:23.840Z,7.47
2023-02-23T00:36:56.454Z,7.43
2023-02-23T00:39:29.408Z,7.47
2023-02-23T00:42:02.895Z,7.38
2023-02-23T00:44:31.940Z,6.93
2023-02-23T00:46:59.045Z,7.22
2023-02-23T00:49:27.079Z,7.63
2023-02-23T00:51:54.394Z,7.00
2023-02-23T00:54:22.610Z,7.38
2023-02-23T00:56:50.735Z,7.90
2023-02-23T00:59:19.170Z,7.75
2023-02-23T01:01:47.048Z,7.22
2023-02-23T01:04:15.273Z,8.60
2023-02-23T01:06:43.190Z,7.15
2023-02-23T01:09:27.299Z,7.18
2023-02-23T01:11:56.723Z,7.32
2023-02-23T01:14:24.537Z,6.55
2023-02-23T01:16:51.741Z,8.02
2023-02-23T01:19:19.770Z,8.63
2023-02-23T01:21:49.153Z,9.50
2023-02-23T01:24:18.249Z,9.13
2023-02-23T01:26:45.841Z,8.57
2023-02-23T01:29:18.266Z,8.48
2023-02-23T01:31:48.991Z,6.28
2023-02-23T01:34:22.023Z,5.95
2023-02-23T01:36:49.496Z,6.10
2023-02-23T01:39:19.675Z,6.82
2023-02-23T01:41:46.956Z,7.47
2023-02-23T01:44:15.512Z,6.28
2023-02-23T01:46:45.553Z,5.55
2023-02-23T01:49:23.542Z,5.80
2023-02-23T01:51:55.848Z,5.45
2023-02-23T01:54:29.069Z,5.55
2023-02-23T01:57:00.163Z,5.30
2023-02-23T01:59:44.372Z,5.03
2023-02-23T02:02:13.483Z,5.63
2023-02-23T02:04:46.421Z,5.88
2023-02-23T02:07:19.995Z,4.60
2023-02-23T02:10:17.186Z,4.85
2023-02-23T02:12:55.591Z,4.53
2023-02-23T02:15:27.665Z,4.55
2023-02-23T02:18:09.393Z,4.63
2023-02-23T02:21:18.169Z,4.72
2023-02-23T02:24:24.681Z,4.82
2023-02-23T02:27:29.542Z,4.55
2023-02-23T02:30:30.016Z,5.03
2023-02-23T02:33:06.154Z,4.65
2023-02-23T02:35:46.308Z,5.28
2023-02-23T02:38:22.071Z,5.07
2023-02-23T02:41:20.077Z,5.20
2023-02-23T02:44:20.206Z,5.10
2023-02-23T02:46:52.145Z,5.53
2023-02-23T02:49:31.106Z,5.45
2023-02-23T02:52:05.801Z,4.63
2023-02-23T02:54:48.212Z,5.25
2023-02-23T02:57:18.574Z,4.57
2023-02-23T03:00:07.540Z,5.05
2023-02-23T03:02:59.062Z,3.88
2023-02-23T03:06:01.515Z,5.53
2023-02-23T03:08:52.368Z,5.30
2023-02-23T03:11:38.574Z,5.60
2023-02-23T03:14:27.062Z,5.15
2023-02-23T03:17:38.324Z,5.00
2023-02-23T03:20:41.393Z,4.40
2023-02-23T03:23:39.862Z,4.50
2023-02-23T03:26:34.167Z,6.78
2023-02-23T03:29:35.994Z,5.70
2023-02-23T03:32:23.240Z,4.95
2023-02-23T03:35:33.676Z,4.95
2023-02-23T03:38:28.984Z,4.90
2023-02-23T03:41:16.668Z,5.35
2023-02-23T03:44:11.213Z,5.38
2023-02-23T03:46:59.808Z,5.18
2023-02-23T03:52:40.205Z,5.05
2023-02-23T03:55:33.909Z,4.90
2023-02-23T03:58:25.033Z,5.63
2023-02-23T04:01:14.732Z,4.53
2023-02-23T04:04:03.228Z,4.70
2023-02-23T04:06:53.548Z,4.60
2023-02-23T04:09:39.577Z,5.28
2023-02-23T04:12:28.608Z,5.15
2023-02-23T04:15:04.427Z,5.60
2023-02-23T04:17:32.392Z,5.72
2023-02-23T04:20:00.111Z,6.40
2023-02-23T04:22:27.250Z,4.82
2023-02-23T04:24:54.661Z,5.70
2023-02-23T04:27:21.767Z,4.88
2023-02-23T04:29:49.359Z,4.57
2023-02-23T04:32:19.253Z,6.25
2023-02-23T04:34:46.943Z,4.60
2023-02-23T04:37:14.511Z,4.93
2023-02-23T04:39:43.023Z,4.95
2023-02-23T04:42:10.299Z,4.25
2023-02-23T04:44:37.759Z,4.47
2023-02-23T04:47:04.876Z,5.13
2023-02-23T04:49:32.795Z,4.55
2023-02-23T04:51:59.929Z,4.07
2023-02-23T04:54:27.885Z,4.53
2023-02-23T04:56:55.075Z,4.40
2023-02-23T04:59:22.505Z,4.32
2023-02-23T05:01:49.666Z,4.10
2023-02-23T05:04:17.016Z,4.50
2023-02-23T05:06:44.455Z,4.35
2023-02-23T05:09:11.804Z,4.78
2023-02-23T05:11:38.901Z,4.97
2023-02-23T05:14:06.516Z,4.30
2023-02-23T05:16:34.064Z,5.00
2023-02-23T05:19:01.647Z,4.55
2023-02-23T05:21:28.811Z,4.75
2023-02-23T05:23:57.350Z,4.05
2023-02-23T05:26:24.438Z,3.90
2023-02-23T05:28:51.936Z,4.32
2023-02-23T05:31:19.485Z,4.10
2023-02-23T05:33:47.371Z,4.20
2023-02-23T05:36:17.651Z,4.00
2023-02-23T05:38:46.729Z,4.20
2023-02-23T05:41:16.877Z,4.60
2023-02-23T05:43:44.478Z,4.13
2023-02-23T05:46:15.659Z,5.32
2023-02-23T05:48:43.598Z,4.78
2023-02-23T05:51:13.056Z,5.80
2023-02-23T05:53:41.074Z,4.85
2023-02-23T05:56:11.794Z,5.78
2023-02-23T05:58:39.260Z,5.38
2023-02-23T06:01:06.499Z,6.13
2023-02-23T06:03:34.503Z,4.93
2023-02-23T06:06:01.649Z,5.53
2023-02-23T06:08:29.545Z,4.90
2023-02-23T06:10:56.645Z,4.70
2023-02-23T06:13:24.107Z,5.35
2023-02-23T06:15:51.252Z,5.40
2023-02-23T06:18:18.666Z,4.93
2023-02-23T06:20:46.344Z,4.82
2023-02-23T06:23:15.663Z,5.85
2023-02-23T06:25:44.286Z,5.57
2023-02-23T06:28:12.085Z,11.75
2023-02-23T06:30:40.242Z,5.57
2023-02-23T06:33:08.083Z,5.28
2023-02-23T06:35:35.717Z,5.25
2023-02-23T06:38:04.269Z,6.43
2023-02-23T06:40:31.745Z,6.10
2023-02-23T06:42:59.725Z,5.97
2023-02-23T06:45:27.294Z,5.43
2023-02-23T06:47:54.753Z,5.60
2023-02-23T06:50:22.716Z,5.70
2023-02-23T06:52:50.299Z,5.95
2023-02-23T06:55:17.972Z,5.90
2023-02-23T06:57:45.413Z,5.65
2023-02-23T07:00:15.228Z,5.22
2023-02-23T07:02:42.687Z,5.70
2023-02-23T07:05:10.813Z,6.70
2023-02-23T07:07:38.753Z,6.53
2023-02-23T07:10:06.873Z,6.30
2023-02-23T07:12:34.305Z,6.30
2023-02-23T07:15:01.396Z,6.47
2023-02-23T07:17:28.803Z,6.57
2023-02-23T07:19:56.017Z,6.30
2023-02-23T07:22:24.964Z,6.40
2023-02-23T07:24:52.106Z,6.25
2023-02-23T07:27:19.675Z,5.78
2023-02-23T07:29:46.885Z,6.20
2023-02-23T07:32:14.553Z,5.80
2023-02-23T07:34:41.750Z,5.90
2023-02-23T07:37:09.212Z,6.22
2023-02-23T07:39:36.316Z,5.95
2023-02-23T07:42:04.787Z,6.47
2023-02-23T07:44:31.895Z,6.30
2023-02-23T07:46:59.316Z,5.63
2023-02-23T07:49:26.596Z,5.90
2023-02-23T07:51:54.021Z,6.07
2023-02-23T07:54:21.985Z,5.22
2023-02-23T07:56:49.391Z,5.13
2023-02-23T07:59:16.758Z,5.75
2023-02-23T08:01:44.769Z,5.18
2023-02-23T08:04:12.103Z,5.28
2023-02-23T08:06:39.883Z,6.05
2023-02-23T08:09:07.497Z,5.82
2023-02-23T08:11:35.000Z,5.88
2023-02-23T08:14:02.261Z,5.85
2023-02-23T08:16:31.875Z,5.75
2023-02-23T08:19:00.764Z,6.07
2023-02-23T08:21:29.733Z,5.90
2023-02-23T08:23:58.230Z,4.75
2023-02-23T08:26:26.273Z,5.00
2023-02-23T08:28:54.751Z,5.70
2023-02-23T08:31:24.272Z,5.88
2023-02-23T08:33:52.849Z,5.28
2023-02-23T08:36:23.130Z,5.47
2023-02-23T08:38:50.908Z,5.25
2023-02-23T08:41:18.784Z,5.20
2023-02-23T08:43:46.545Z,4.47
2023-02-23T08:46:14.704Z,5.10
2023-02-23T08:48:42.100Z,5.20
2023-02-23T08:51:09.531Z,5.10
2023-02-23T08:53:36.842Z,4.32
2023-02-23T08:56:06.728Z,4.63
2023-02-23T08:58:35.453Z,5.00
2023-02-23T09:01:03.830Z,5.00
2023-02-23T09:03:35.242Z,5.20
2023-02-23T09:06:11.796Z,4.97
2023-02-23T09:08:39.475Z,5.13
2023-02-23T09:11:06.966Z,4.75
2023-02-23T09:13:34.387Z,4.97
2023-02-23T09:16:03.998Z,4.88
2023-02-23T09:18:32.774Z,5.57
2023-02-23T09:21:06.986Z,5.72
2023-02-23T09:23:38.610Z,5.70
2023-02-23T09:26:08.160Z,5.68
2023-02-23T09:28:36.172Z,4.80
2023-02-23T09:31:08.573Z,5.32
2023-02-23T09:33:36.369Z,5.25
2023-02-23T09:36:24.788Z,5.45
2023-02-23T09:38:56.519Z,5.10
2023-02-23T09:41:45.588Z,5.13
2023-02-23T09:44:33.634Z,5.05
2023-02-23T09:47:12.984Z,4.75
2023-02-23T09:49:42.469Z,5.05
2023-02-23T09:52:24.066Z,4.38
2023-02-23T09:54:51.617Z,5.28
2023-02-23T09:57:25.560Z,5.20
2023-02-23T09:59:53.256Z,6.00
2023-02-23T10:02:34.904Z,5.68
2023-02-23T10:05:08.754Z,5.78
2023-02-23T10:07:56.730Z,5.28
2023-02-23T10:10:32.626Z,5.45
2023-02-23T10:13:25.209Z,6.10
2023-02-23T10:16:04.085Z,9.80
2023-02-23T10:19:00.976Z,6.13
2023-02-23T10:21:39.136Z,5.50
2023-02-23T10:24:11.556Z,5.50
2023-02-23T10:26:49.745Z,5.55
2023-02-23T10:29:32.608Z,5.68
2023-02-23T10:32:04.553Z,5.88
2023-02-23T10:34:32.437Z,5.63
2023-02-23T10:37:05.923Z,5.93
2023-02-23T10:39:34.643Z,5.80
2023-02-23T10:42:13.289Z,6.43
2023-02-23T10:44:44.341Z,7.07
2023-02-23T10:47:19.270Z,5.80
2023-02-23T10:49:54.180Z,5.82
2023-02-23T10:52:30.593Z,6.35
2023-02-23T10:55:00.690Z,6.38
2023-02-23T10:57:33.700Z,6.88
2023-02-23T11:00:27.926Z,6.18
2023-02-23T11:02:58.360Z,6.80
2023-02-23T11:05:58.063Z,7.28
2023-02-23T11:08:35.109Z,6.88
2023-02-23T11:11:05.783Z,6.38
2023-02-23T11:13:50.353Z,7.28
2023-02-23T11:16:24.093Z,8.52
2023-02-23T11:18:57.289Z,7.15
2023-02-23T11:21:34.597Z,7.10
2023-02-23T11:24:13.950Z,7.50
2023-02-23T11:26:43.783Z,7.90
2023-02-23T11:29:35.722Z,10.30
2023-02-23T11:32:15.815Z,6.90
2023-02-23T11:34:44.342Z,7.15
2023-02-23T11:37:18.620Z,7.82
2023-02-23T11:39:51.899Z,6.85
2023-02-23T11:42:22.341Z,7.25
2023-02-23T11:45:33.678Z,8.20
2023-02-23T11:48:02.506Z,8.05
2023-02-23T11:50:32.738Z,8.27
2023-02-23T11:53:29.097Z,8.20
2023-02-23T11:56:02.785Z,7.97
2023-02-23T11:58:39.361Z,7.25
2023-02-23T12:01:13.801Z,6.25
2023-02-23T12:03:48.183Z,7.70
2023-02-23T12:06:33.614Z,7.88
2023-02-23T12:09:07.004Z,8.15
2023-02-23T12:11:39.388Z,7.90
2023-02-23T12:14:30.747Z,7.45
2023-02-23T12:17:05.172Z,7.95
2023-02-23T12:19:54.116Z,8.07
2023-02-23T12:22:26.801Z,7.65
2023-02-23T12:25:03.988Z,7.53
2023-02-23T12:27:41.748Z,7.57
2023-02-23T12:30:48.514Z,8.02
2023-02-23T12:33:40.932Z,7.50
2023-02-23T12:36:14.597Z,7.53
2023-02-23T12:39:19.410Z,7.60
2023-02-23T12:42:02.834Z,7.45
2023-02-23T12:44:53.682Z,7.93
2023-02-23T12:47:53.032Z,7.63
2023-02-23T12:50:30.257Z,8.25
2023-02-23T12:52:59.725Z,8.25
2023-02-23T12:55:47.347Z,7.72
2023-02-23T12:58:18.966Z,7.53
2023-02-23T13:01:04.198Z,8.80
2023-02-23T13:03:43.566Z,8.20
2023-02-23T13:06:36.932Z,8.57
2023-02-23T13:09:22.251Z,8.32
2023-02-23T13:12:07.675Z,8.43
2023-02-23T13:14:51.072Z,8.73
2023-02-23T13:17:39.774Z,8.15
2023-02-23T13:20:21.555Z,8.80
2023-02-23T13:22:56.637Z,7.88
2023-02-23T13:25:57.014Z,8.05
2023-02-23T13:28:50.012Z,7.90
2023-02-23T13:31:25.240Z,8.65
2023-02-23T13:33:54.811Z,7.72
2023-02-23T13:36:23.591Z,8.52
2023-02-23T13:39:18.021Z,8.80
2023-02-23T13:42:01.468Z,8.38
2023-02-23T13:44:39.518Z,8.60
2023-02-23T13:47:23.607Z,7.97
2023-02-23T13:50:21.643Z,7.75
2023-02-23T13:52:49.688Z,8.40
2023-02-23T13:55:26.380Z,8.23
2023-02-23T13:57:55.093Z,8.27
2023-02-23T14:00:23.769Z,7.50
2023-02-23T14:02:51.468Z,9.02
2023-02-23T14:05:25.159Z,8.50
2023-02-23T14:07:56.017Z,8.07
2023-02-23T14:10:28.806Z,8.07
2023-02-23T14:13:14.250Z,8.48
2023-02-23T14:15:50.099Z,8.20
2023-02-23T14:18:17.521Z,8.88
2023-02-23T14:21:01.609Z,8.43
2023-02-23T14:23:35.466Z,8.68
2023-02-23T14:26:42.692Z,8.55
2023-02-23T14:29:19.149Z,8.60
2023-02-23T14:32:01.496Z,8.43
2023-02-23T14:34:49.633Z,7.75
2023-02-23T14:37:32.005Z,8.63
2023-02-23T14:40:11.768Z,8.20
2023-02-23T14:42:40.298Z,9.10
2023-02-23T14:45:29.481Z,8.82
2023-02-23T14:48:07.552Z,10.13
2023-02-23T14:50:37.689Z,9.38
2023-02-23T14:53:13.906Z,8.50
2023-02-23T14:55:44.040Z,8.35
2023-02-23T14:58:29.390Z,9.75
2023-02-23T15:00:56.802Z,8.73
2023-02-23T15:03:24.025Z,9.02
2023-02-23T15:06:01.314Z,10.30
2023-02-23T15:08:30.818Z,8.18
2023-02-23T15:11:12.738Z,9.20
2023-02-23T15:13:49.110Z,9.45
2023-02-23T15:16:30.040Z,9.35
2023-02-23T15:18:59.795Z,10.50
2023-02-23T15:21:27.624Z,11.00
2023-02-23T15:24:16.792Z,11.20
2023-02-23T15:26:44.577Z,9.63
2023-02-23T15:29:14.386Z,10.00
2023-02-23T15:31:51.266Z,10.00
2023-02-23T15:34:21.317Z,10.63
2023-02-23T15:36:59.928Z,10.75
2023-02-23T15:39:54.639Z,11.20
2023-02-23T15:42:47.115Z,11.85
2023-02-23T15:45:37.408Z,11.60
2023-02-23T15:48:17.273Z,11.98
2023-02-23T15:50:50.288Z,12.25
2023-02-23T15:53:32.856Z,11.98
2023-02-23T15:56:09.757Z,12.00
2023-02-23T15:58:56.101Z,12.43
2023-02-23T16:01:27.609Z,11.90
2023-02-23T16:04:21.716Z,11.43
2023-02-23T16:07:07.843Z,11.07
2023-02-23T16:09:38.626Z,11.27
2023-02-23T16:12:17.376Z,10.57
2023-02-23T16:14:46.561Z,12.00
2023-02-23T16:17:30.202Z,12.30
2023-02-23T16:20:24.611Z,12.88
2023-02-23T16:22:53.694Z,11.75
2023-02-23T16:25:24.610Z,13.15
2023-02-23T16:28:01.014Z,13.75
2023-02-23T16:33:26.580Z,14.30
2023-02-23T16:36:06.131Z,13.98
2023-02-23T16:38:36.966Z,13.27
2023-02-23T16:41:05.890Z,14.25
2023-02-23T16:43:35.229Z,13.48
2023-02-23T16:46:02.875Z,13.63
2023-02-23T16:48:30.478Z,14.05
2023-02-23T16:50:58.018Z,15.75
2023-02-23T16:53:25.349Z,21.25
2023-02-23T16:55:55.441Z,16.10
2023-02-23T16:58:25.140Z,16.70
2023-02-23T17:00:53.679Z,14.98
2023-02-23T17:03:30.432Z,16.98
2023-02-23T17:05:58.201Z,19.40
2023-02-23T17:08:26.362Z,19.35
2023-02-23T17:10:55.989Z,17.08
2023-02-23T17:13:25.692Z,15.93
2023-02-23T17:15:56.544Z,16.83
2023-02-23T17:18:29.080Z,15.68
2023-02-23T17:20:59.327Z,14.13
2023-02-23T17:23:38.413Z,16.00
2023-02-23T17:26:07.823Z,16.42
2023-02-23T17:28:34.942Z,16.38
2023-02-23T17:31:03.607Z,16.67
2023-02-23T17:33:36.486Z,17.52
2023-02-23T17:36:06.554Z,17.75
2023-02-23T17:38:34.356Z,17.85
2023-02-23T17:41:04.068Z,17.08
2023-02-23T17:43:31.639Z,16.50
2023-02-23T17:45:59.317Z,16.77
2023-02-23T17:48:27.522Z,15.50
2023-02-23T17:51:01.010Z,15.63
2023-02-23T17:53:29.705Z,14.43
2023-02-23T17:55:57.610Z,14.38
2023-02-23T17:58:25.067Z,14.10
2023-02-23T18:00:57.586Z,13.07
2023-02-23T18:03:31.807Z,11.95
2023-02-23T18:06:10.943Z,11.48
2023-02-23T18:08:40.283Z,11.18
2023-02-23T18:11:08.290Z,11.57
2023-02-23T18:13:35.620Z,10.48
2023-02-23T18:16:09.802Z,11.02
2023-02-23T18:18:43.767Z,11.23
2023-02-23T18:21:20.920Z,10.95
2023-02-23T18:26:22.970Z,13.43
2023-02-23T18:28:51.273Z,15.50
2023-02-23T18:31:23.080Z,12.40
2023-02-23T18:33:53.090Z,12.35
2023-02-23T18:36:24.677Z,12.27
2023-02-23T18:38:52.354Z,11.55
2023-02-23T18:41:20.267Z,13.02
2023-02-23T18:43:48.003Z,12.35
2023-02-23T18:46:16.075Z,12.50
2023-02-23T18:48:43.846Z,13.20
2023-02-23T18:51:14.356Z,14.05
2023-02-23T18:53:42.289Z,13.90
2023-02-23T18:56:13.650Z,13.85
2023-02-23T18:58:42.200Z,13.50
2023-02-23T19:01:19.240Z,14.13
2023-02-23T19:03:53.768Z,13.18
2023-02-23T19:06:22.810Z,15.63
2023-02-23T19:08:55.399Z,13.80
2023-02-23T19:11:25.727Z,15.95
2023-02-23T19:13:54.829Z,14.57
2023-02-23T19:16:23.644Z,15.73
2023-02-23T19:18:50.996Z,16.45
2023-02-23T19:21:23.646Z,15.57
2023-02-23T19:23:51.351Z,15.13
2023-02-23T19:26:20.049Z,15.18
2023-02-23T19:28:47.777Z,15.23
2023-02-23T19:31:19.750Z,13.90
2023-02-23T19:33:49.602Z,15.18
2023-02-23T19:36:19.370Z,15.88
2023-02-23T19:38:47.404Z,15.50
2023-02-23T19:41:20.468Z,16.35
2023-02-23T19:43:48.128Z,16.95
2023-02-23T19:46:17.358Z,15.63
2023-02-23T19:48:51.975Z,15.63
2023-02-23T19:51:20.704Z,16.23
2023-02-23T19:53:48.149Z,16.83
2023-02-23T19:56:17.129Z,16.02
2023-02-23T19:58:46.732Z,17.60
2023-02-23T20:01:17.025Z,18.25
2023-02-23T20:03:49.500Z,17.00
2023-02-23T20:06:18.118Z,16.13
2023-02-23T20:08:46.085Z,17.60
2023-02-23T20:11:15.603Z,18.33
2023-02-23T20:13:42.840Z,17.58
2023-02-23T20:16:14.841Z,16.67
2023-02-23T20:18:43.709Z,16.88
2023-02-23T20:21:16.669Z,18.38
2023-02-23T20:23:45.733Z,17.17
2023-02-23T20:26:17.280Z,17.20
2023-02-23T20:28:44.897Z,18.00
2023-02-23T20:31:20.105Z,16.98
2023-02-23T20:33:50.395Z,16.33
2023-02-23T20:36:20.087Z,15.63
2023-02-23T20:38:47.468Z,16.70
2023-02-23T20:41:16.152Z,14.98
2023-02-23T20:43:44.029Z,14.60
2023-02-23T20:46:16.765Z,14.80
2023-02-23T20:48:44.117Z,14.25
2023-02-23T20:51:13.036Z,15.52
2023-02-23T20:53:41.876Z,15.27
2023-02-23T20:56:10.123Z,16.40
2023-02-23T20:58:37.500Z,15.27
2023-02-23T21:01:06.934Z,14.43
2023-02-23T21:03:34.965Z,15.68
2023-02-23T21:06:05.007Z,15.82
2023-02-23T21:08:32.341Z,15.18
2023-02-23T21:11:04.877Z,15.50
2023-02-23T21:13:32.846Z,15.63
2023-02-23T21:16:01.601Z,15.38
2023-02-23T21:18:30.184Z,15.40
2023-02-23T21:21:09.884Z,16.00
2023-02-23T21:23:44.823Z,16.00
2023-02-23T21:26:22.953Z,24.63
2023-02-23T21:28:50.119Z,14.32
2023-02-23T21:31:17.808Z,16.20
2023-02-23T21:33:45.659Z,17.10
2023-02-23T21:36:16.655Z,17.05
2023-02-23T21:38:45.146Z,15.82
2023-02-23T21:41:14.646Z,15.93
2023-02-23T21:43:44.088Z,15.77
2023-02-23T21:46:14.223Z,15.45
2023-02-23T21:48:42.705Z,17.15
2023-02-23T21:51:12.286Z,16.83
2023-02-23T21:53:40.377Z,15.23
2023-02-23T21:56:16.780Z,16.40
2023-02-23T21:58:46.878Z,17.63
2023-02-23T22:01:16.962Z,17.02
2023-02-23T22:03:47.129Z,16.90
2023-02-23T22:06:17.019Z,17.65
2023-02-23T22:08:44.948Z,17.15
2023-02-23T22:11:17.775Z,18.05
2023-02-23T22:13:45.876Z,16.05
2023-02-23T22:16:14.862Z,16.42
2023-02-23T22:18:42.811Z,17.25
2023-02-23T22:21:13.940Z,16.50
2023-02-23T22:23:47.925Z,16.83
2023-02-23T22:26:15.765Z,16.77
2023-02-23T22:28:43.452Z,17.67
2023-02-23T22:31:13.798Z,17.00
2023-02-23T22:33:43.518Z,18.15
2023-02-23T22:36:13.733Z,17.20
2023-02-23T22:38:42.202Z,17.15
2023-02-23T22:41:13.076Z,17.20
2023-02-23T22:43:42.456Z,18.60
2023-02-23T22:46:11.030Z,16.65
2023-02-23T22:48:38.309Z,17.85
2023-02-23T22:51:07.830Z,17.88
2023-02-23T22:53:34.951Z,17.08
2023-02-23T22:56:04.021Z,17.95
2023-02-23T22:58:32.907Z,18.48
2023-02-23T23:01:06.227Z,17.42
2023-02-23T23:03:37.536Z,16.77
2023-02-23T23:06:08.139Z,18.52
2023-02-23T23:08:40.154Z,19.08
2023-02-23T23:11:13.264Z,18.33
2023-02-23T23:13:44.788Z,18.00
2023-02-23T23:16:25.626Z,16.77
2023-02-23T23:19:03.998Z,19.20
2023-02-23T23:21:33.990Z,19.10
2023-02-23T23:24:06.551Z,19.85
2023-02-23T23:26:36.466Z,18.60
2023-02-23T23:29:05.846Z,20.48
2023-02-23T23:31:35.228Z,16.70
2023-02-23T23:34:06.061Z,19.90
2023-02-23T23:36:49.175Z,20.25
2023-02-23T23:39:21.984Z,20.17
2023-02-23T23:41:50.718Z,19.45
2023-02-23T23:44:20.818Z,19.02
2023-02-23T23:46:50.946Z,19.25
2023-02-23T23:49:20.201Z,19.73
2023-02-23T23:51:50.641Z,19.23
2023-02-23T23:54:28.817Z,18.65
2023-02-23T23:56:56.936Z,20.98
2023-02-23T23:59:26.548Z,19.17
